• Join FlightAware (Why Join?)
  • Login
  • US Flag 
04:52PM EDT


 

Airport Tracker/Info


-or-


 

Live Flight TrackerFlight Track Log ✈ DAL1884 ✈ 06-May-2013 ✈ KIAH - KATL

Flight Track Log - Related Links

Times and Time Zones

All times are in EDT time to prevent confusion due to time zone crossing. See the DAL1884 flight status page for this flight to view local times or setup timezone preferences in your user account.

Time Position Orientation Groundspeed Altitude Reporting Facility
EDT Latitude Longitude Course Direction KTS MPH feet Rate Location/Type
07:09AM 29.9614 -95.3411 90° East 167 192 900  Level Houston Center
07:10AM 29.9125 -95.2650 127° Southeast 261 300 3,700 1,620 Climbing Houston Center
07:11AM 29.9039 -95.2511 126° Southeast 238 274 3,900 2,820 Climbing Houston Center
07:11AM 29.8714 -95.1833 119° Southeast 292 336 6,600 3,300 Climbing Houston Center
07:12AM 29.9834 -94.9022 90° East  Level FlightAware Approximate
07:12AM 29.8675 -95.1692 108° East 284 327 7,300  Level Houston Center
07:13AM 29.9834 -94.7585 90° East  Level FlightAware Approximate
07:13AM 29.8653 -95.0772 92° East 298 343 10,400  Level Houston Center
07:14AM 29.9833 -94.6148 90° East  Level FlightAware Approximate
07:14AM 29.8861 -94.9703 77° East 338 389 12,100  Level Houston Center
07:15AM 29.9069 -94.8450 79° East 392 451 14,900 2,760 Climbing Houston Center
07:16AM 29.9286 -94.7167 79° East 405 466 17,700 2,400 Climbing Houston Center
07:17AM 29.9508 -94.5825 79° East 422 486 19,800 2,100 Climbing Houston Center
07:18AM 29.9739 -94.4417 79° East 438 504 22,000 1,980 Climbing Houston Center
07:19AM 29.9983 -94.2981 79° East 456 525 23,900 1,680 Climbing Houston Center
07:20AM 30.0158 -94.1486 82° East 467 537 25,500 1,560 Climbing Houston Center
07:21AM 30.0350 -93.9956 82° East 479 551 27,100 1,260 Climbing Houston Center
07:22AM 30.0544 -93.8372 82° East 495 570 28,100 1,080 Climbing Houston Center
07:23AM 30.0775 -93.6392 82° East 521 600 29,400 1,380 Climbing Houston Center
07:24AM 30.0964 -93.4728 82° East 530 610 31,000 1,620 Climbing Houston Center
07:25AM 30.1161 -93.3100 82° East 523 602 32,700 1,440 Climbing Houston Center
07:26AM 30.1356 -93.1472 82° East 520 598 34,000 1,260 Climbing Houston Center
07:27AM 30.1633 -92.9872 79° East 513 590 35,300 1,200 Climbing Houston Center
07:28AM 30.1953 -92.8297 77° East 507 583 36,500 1,140 Climbing Houston Center
07:29AM 30.2256 -92.6717 77° East 505 581 37,600 780 Climbing Houston Center
07:30AM 30.2569 -92.5128 77° East 507 583 38,100 540 Climbing Houston Center
07:31AM 30.2914 -92.3281 78° East 515 593 38,700 420 Climbing Houston Center
07:32AM 30.3231 -92.1675 77° East 515 593 39,000 120 Climbing Houston Center
07:33AM 30.3519 -92.0086 78° East 509 586 39,000  Level Houston Center
07:34AM 30.3828 -91.8481 77° East 512 589 39,000  Level Houston Center
07:35AM 30.4125 -91.6911 78° East 518 596 39,000  Level Houston Center
07:36AM 30.4431 -91.5267 78° East 522 601 39,000  Level Houston Center
07:37AM 30.4744 -91.3639 77° East 521 600 39,000  Level Houston Center
07:38AM 30.5147 -91.1689 76° East 518 596 39,000  Level Houston Center
07:39AM 30.5531 -91.0042 75° East 520 598 39,000  Level Houston Center
07:40AM 30.5881 -90.8450 76° East 519 597 39,000  Level Houston Center
07:41AM 30.6247 -90.6833 75° East 518 596 39,000  Level Houston Center
07:42AM 30.6614 -90.5225 75° East 516 594 39,000  Level Houston Center
07:43AM 30.6964 -90.3614 76° East 514 592 39,000  Level Houston Center
07:44AM 30.7328 -90.2011 75° East 512 589 39,000 -60 Level Houston Center
07:45AM 30.7675 -90.0414 76° East 507 583 38,900  Descending Houston Center
07:46AM 30.8028 -89.8817 76° East 505 581 39,000  Climbing Houston Center
07:47AM 30.8369 -89.7225 76° East 504 580 39,000  Level Houston Center
07:48AM 30.8714 -89.5650 76° East 500 575 39,000 -60 Level Houston Center
07:49AM 30.9047 -89.4100 76° East 494 568 38,900 -60 Descending Houston Center
07:50AM 30.9389 -89.2536 76° East 497 572 38,900  Level Houston Center
07:51AM 30.9925 -89.1081 67° East 489 563 38,900  Level Houston Center
07:52AM 31.0497 -88.9653 65° Northeast 489 563 39,000  Climbing Houston Center
07:54AM 31.1091 -88.8183 65° Northeast  Level FlightAware Approximate
07:54AM 31.1633 -88.6739 65° Northeast 494 568 39,000  Level Houston Center
07:56AM 31.2961 -88.3447 65° Northeast 486 559 39,000  Level Atlanta Center
07:57AM 31.3533 -88.1942 66° East 496 571 39,100  Climbing Atlanta Center
07:59AM 31.4736 -87.8953 65° Northeast 496 571 39,000 -60 Descending Atlanta Center
08:01AM 31.6189 -87.6481 55° Northeast 488 562 39,000 -180 Level Atlanta Center
08:02AM 31.6956 -87.5169 55° Northeast 488 562 38,500 -780 Descending Atlanta Center
08:03AM 31.7808 -87.3761 55° Northeast 483 556 37,500 -1,020 Descending Atlanta Center
08:04AM 31.8636 -87.2422 54° Northeast 488 562 36,500 -1,500 Descending Atlanta Center
08:05AM 31.9442 -87.1106 54° Northeast 493 567 34,500 -2,040 Descending Atlanta Center
08:06AM 32.0183 -86.9831 56° Northeast 487 560 32,500 -2,640 Descending Atlanta Center
08:08AM 32.1658 -86.7353 55° Northeast 465 535 26,700 -2,640 Descending Atlanta Center
08:09AM 32.2372 -86.6172 54° Northeast 455 524 24,600 -1,380 Descending Atlanta Center
08:10AM 32.3044 -86.5011 56° Northeast 442 509 24,000 -300 Descending Atlanta Center
08:11AM 32.3583 -86.4092 55° Northeast 430 495 24,000  Level Atlanta Center
08:12AM 32.4233 -86.2856 58° Northeast 418 481 24,000  Level Atlanta Center
08:13AM 32.4878 -86.1764 55° Northeast 412 474 24,000  Level Atlanta Center
08:14AM 32.5672 -86.0475 54° Northeast 420 483 24,000 -300 Level Atlanta Center
08:15AM 32.6358 -85.9331 55° Northeast 420 483 23,500 -780 Descending Atlanta Center
08:16AM 32.7003 -85.8186 56° Northeast 420 483 22,500 -1,020 Descending Atlanta Center
08:17AM 32.7644 -85.7064 56° Northeast 420 483 21,500 -1,020 Descending Atlanta Center
08:18AM 32.8264 -85.5986 56° Northeast 410 472 20,500 -1,020 Descending Atlanta Center
08:19AM 32.8881 -85.4908 56° Northeast 399 459 19,500 -1,020 Descending Atlanta Center
08:21AM 32.9487 -85.3693 59° Northeast  Level FlightAware Approximate
08:21AM 33.0094 -85.2775 59° Northeast 393 452 17,500  Level Atlanta Center
08:22AM 33.0667 -85.1889 52° Northeast 388 447 15,900 -1,200 Descending Atlanta Center
08:24AM 33.2061 -85.0022 48° Northeast 348 400 14,000 -1,140 Descending Atlanta Center
08:25AM 33.2650 -84.9233 48° Northeast 325 374 12,500 -1,020 Descending Atlanta Center
08:26AM 33.3261 -84.8419 48° Northeast 319 367 12,000 -300 Descending Atlanta Center
08:27AM 33.3833 -84.7667 48° Northeast 322 371 12,000  Level Atlanta TRACON
08:29AM 33.4500 -84.6833 46° Northeast 282 325 12,100  Climbing Atlanta TRACON
08:30AM 33.5000 -84.6167 48° Northeast 273 314 12,000 -720 Descending Atlanta TRACON
08:32AM 33.5500 -84.4500 70° East 273 314 10,100 -1,260 Descending Atlanta TRACON
08:33AM 33.5500 -84.3667 90° East 261 300 8,300 -1,860 Descending Atlanta TRACON
08:33AM 33.5500 -84.2833 90° East 251 289 6,600 -1,320 Descending Atlanta TRACON
08:35AM 33.5333 -84.1363 90° East  Level FlightAware Approximate
08:36AM 33.5833 -84.0833 301° West 195 224 3,200  Level Atlanta TRACON
08:38AM 33.5718 -84.2371 287° West  Level FlightAware Approximate
08:39AM 33.6167 -84.2000 287° West 170 196 3,000  Level Atlanta TRACON
08:39AM 33.6167 -84.2500 270° West 170 196 3,000 -300 Level Atlanta TRACON
08:41AM 33.6167 -84.3500 270° West 127 146 2,200 -540 Descending Atlanta TRACON
08:42AM 33.6333 -84.4167 301° West  Level FlightAware Approximate
08:42AM 33.6167 -84.3833 270° West 124 143 1,500  Level Atlanta TRACON